sensor_id;sensor_type;location;lat;lon;timestamp;P1;durP1;ratioP1;P2;durP2;ratioP2
9294;SDS011;4686;44.496;11.324;2022-10-31T00:00:58;14.37;;;9.07;;
9294;SDS011;4686;44.496;11.324;2022-10-31T00:03:26;10.90;;;7.93;;
9294;SDS011;4686;44.496;11.324;2022-10-31T00:05:54;10.07;;;7.70;;
9294;SDS011;4686;44.496;11.324;2022-10-31T00:08:21;11.37;;;7.70;;
9294;SDS011;4686;44.496;11.324;2022-10-31T00:10:49;12.90;;;8.00;;
9294;SDS011;4686;44.496;11.324;2022-10-31T00:13:17;11.63;;;8.50;;
9294;SDS011;4686;44.496;11.324;2022-10-31T00:15:47;12.13;;;8.10;;
9294;SDS011;4686;44.496;11.324;2022-10-31T00:18:17;11.13;;;8.20;;
9294;SDS011;4686;44.496;11.324;2022-10-31T00:20:45;11.80;;;8.47;;
9294;SDS011;4686;44.496;11.324;2022-10-31T00:23:12;10.93;;;8.00;;
9294;SDS011;4686;44.496;11.324;2022-10-31T00:25:40;10.93;;;7.50;;
9294;SDS011;4686;44.496;11.324;2022-10-31T00:28:08;7.17;;;6.53;;
9294;SDS011;4686;44.496;11.324;2022-10-31T00:30:39;10.10;;;6.90;;
9294;SDS011;4686;44.496;11.324;2022-10-31T00:33:07;9.63;;;6.70;;
9294;SDS011;4686;44.496;11.324;2022-10-31T00:35:34;11.70;;;8.80;;
9294;SDS011;4686;44.496;11.324;2022-10-31T00:38:03;15.00;;;8.20;;
9294;SDS011;4686;44.496;11.324;2022-10-31T00:40:32;11.83;;;7.27;;
9294;SDS011;4686;44.496;11.324;2022-10-31T00:43:00;12.10;;;7.80;;
9294;SDS011;4686;44.496;11.324;2022-10-31T00:45:27;11.23;;;7.90;;
9294;SDS011;4686;44.496;11.324;2022-10-31T00:47:56;9.57;;;7.73;;
9294;SDS011;4686;44.496;11.324;2022-10-31T00:50:23;9.90;;;7.10;;
9294;SDS011;4686;44.496;11.324;2022-10-31T00:52:50;10.23;;;7.83;;
9294;SDS011;4686;44.496;11.324;2022-10-31T00:55:18;10.17;;;7.10;;
9294;SDS011;4686;44.496;11.324;2022-10-31T00:57:45;7.80;;;6.63;;
9294;SDS011;4686;44.496;11.324;2022-10-31T01:00:13;11.70;;;6.93;;
9294;SDS011;4686;44.496;11.324;2022-10-31T01:02:40;9.53;;;7.83;;
9294;SDS011;4686;44.496;11.324;2022-10-31T01:05:09;10.17;;;7.40;;
9294;SDS011;4686;44.496;11.324;2022-10-31T01:07:36;8.83;;;6.80;;
9294;SDS011;4686;44.496;11.324;2022-10-31T01:10:05;10.63;;;7.60;;
9294;SDS011;4686;44.496;11.324;2022-10-31T01:12:35;8.80;;;7.00;;
9294;SDS011;4686;44.496;11.324;2022-10-31T01:15:03;9.40;;;7.40;;
9294;SDS011;4686;44.496;11.324;2022-10-31T01:17:30;10.10;;;7.43;;
9294;SDS011;4686;44.496;11.324;2022-10-31T01:19:58;16.63;;;6.93;;
9294;SDS011;4686;44.496;11.324;2022-10-31T01:22:28;8.60;;;7.40;;
9294;SDS011;4686;44.496;11.324;2022-10-31T01:24:55;8.47;;;6.73;;
9294;SDS011;4686;44.496;11.324;2022-10-31T01:27:22;9.00;;;7.53;;
9294;SDS011;4686;44.496;11.324;2022-10-31T01:29:49;9.70;;;7.07;;
9294;SDS011;4686;44.496;11.324;2022-10-31T01:32:17;7.43;;;6.73;;
9294;SDS011;4686;44.496;11.324;2022-10-31T01:34:44;8.97;;;7.27;;
9294;SDS011;4686;44.496;11.324;2022-10-31T01:37:11;16.63;;;7.60;;
9294;SDS011;4686;44.496;11.324;2022-10-31T01:39:40;9.03;;;6.90;;
9294;SDS011;4686;44.496;11.324;2022-10-31T01:42:09;11.07;;;7.40;;
9294;SDS011;4686;44.496;11.324;2022-10-31T01:47:32;12.80;;;7.30;;
9294;SDS011;4686;44.496;11.324;2022-10-31T01:50:00;11.50;;;6.87;;
9294;SDS011;4686;44.496;11.324;2022-10-31T01:52:30;9.80;;;7.20;;
9294;SDS011;4686;44.496;11.324;2022-10-31T01:54:59;10.43;;;6.50;;
9294;SDS011;4686;44.496;11.324;2022-10-31T01:57:28;8.23;;;6.20;;
9294;SDS011;4686;44.496;11.324;2022-10-31T01:59:56;8.57;;;6.60;;
9294;SDS011;4686;44.496;11.324;2022-10-31T02:02:25;10.00;;;7.17;;
9294;SDS011;4686;44.496;11.324;2022-10-31T02:04:52;7.10;;;6.40;;
9294;SDS011;4686;44.496;11.324;2022-10-31T02:07:22;9.90;;;6.90;;
9294;SDS011;4686;44.496;11.324;2022-10-31T02:09:50;8.73;;;7.07;;
9294;SDS011;4686;44.496;11.324;2022-10-31T02:12:19;9.17;;;7.20;;
9294;SDS011;4686;44.496;11.324;2022-10-31T02:14:47;11.20;;;7.53;;
9294;SDS011;4686;44.496;11.324;2022-10-31T02:17:14;8.00;;;6.80;;
9294;SDS011;4686;44.496;11.324;2022-10-31T02:19:44;9.23;;;7.27;;
9294;SDS011;4686;44.496;11.324;2022-10-31T02:22:16;12.20;;;7.17;;
9294;SDS011;4686;44.496;11.324;2022-10-31T02:24:51;9.30;;;7.27;;
9294;SDS011;4686;44.496;11.324;2022-10-31T02:27:32;8.87;;;7.17;;
9294;SDS011;4686;44.496;11.324;2022-10-31T02:30:05;8.10;;;6.60;;
9294;SDS011;4686;44.496;11.324;2022-10-31T02:32:38;8.30;;;7.50;;
9294;SDS011;4686;44.496;11.324;2022-10-31T02:35:10;10.10;;;6.63;;
9294;SDS011;4686;44.496;11.324;2022-10-31T02:37:42;7.70;;;6.80;;
9294;SDS011;4686;44.496;11.324;2022-10-31T02:40:14;10.27;;;7.10;;
9294;SDS011;4686;44.496;11.324;2022-10-31T02:42:44;6.90;;;6.20;;
9294;SDS011;4686;44.496;11.324;2022-10-31T02:45:14;7.60;;;6.77;;
9294;SDS011;4686;44.496;11.324;2022-10-31T02:47:46;9.83;;;6.80;;
9294;SDS011;4686;44.496;11.324;2022-10-31T02:50:18;7.30;;;6.60;;
9294;SDS011;4686;44.496;11.324;2022-10-31T02:52:49;9.33;;;6.97;;
9294;SDS011;4686;44.496;11.324;2022-10-31T02:58:00;8.27;;;6.53;;
9294;SDS011;4686;44.496;11.324;2022-10-31T03:00:29;7.93;;;6.93;;
9294;SDS011;4686;44.496;11.324;2022-10-31T03:03:02;7.00;;;6.30;;
9294;SDS011;4686;44.496;11.324;2022-10-31T03:05:37;12.80;;;6.60;;
9294;SDS011;4686;44.496;11.324;2022-10-31T03:08:09;9.00;;;6.80;;
9294;SDS011;4686;44.496;11.324;2022-10-31T03:10:39;9.30;;;6.50;;
9294;SDS011;4686;44.496;11.324;2022-10-31T03:13:09;9.57;;;6.37;;
9294;SDS011;4686;44.496;11.324;2022-10-31T03:15:38;7.40;;;6.70;;
9294;SDS011;4686;44.496;11.324;2022-10-31T03:18:08;7.17;;;6.57;;
9294;SDS011;4686;44.496;11.324;2022-10-31T03:20:37;9.73;;;6.70;;
9294;SDS011;4686;44.496;11.324;2022-10-31T03:23:05;13.03;;;6.90;;
9294;SDS011;4686;44.496;11.324;2022-10-31T03:25:33;7.40;;;6.20;;
9294;SDS011;4686;44.496;11.324;2022-10-31T03:28:02;11.43;;;6.67;;
9294;SDS011;4686;44.496;11.324;2022-10-31T03:30:31;6.40;;;5.80;;
9294;SDS011;4686;44.496;11.324;2022-10-31T03:33:00;7.10;;;6.40;;
9294;SDS011;4686;44.496;11.324;2022-10-31T03:35:31;9.70;;;6.07;;
9294;SDS011;4686;44.496;11.324;2022-10-31T03:38:00;8.50;;;6.60;;
9294;SDS011;4686;44.496;11.324;2022-10-31T03:40:27;8.03;;;6.20;;
9294;SDS011;4686;44.496;11.324;2022-10-31T03:42:58;12.00;;;6.30;;
9294;SDS011;4686;44.496;11.324;2022-10-31T03:45:27;10.83;;;6.53;;
9294;SDS011;4686;44.496;11.324;2022-10-31T03:47:56;7.93;;;6.00;;
9294;SDS011;4686;44.496;11.324;2022-10-31T03:50:23;7.10;;;6.40;;
9294;SDS011;4686;44.496;11.324;2022-10-31T03:52:54;8.77;;;6.20;;
9294;SDS011;4686;44.496;11.324;2022-10-31T03:55:24;7.20;;;6.30;;
9294;SDS011;4686;44.496;11.324;2022-10-31T03:57:54;7.80;;;6.57;;
9294;SDS011;4686;44.496;11.324;2022-10-31T04:00:24;7.63;;;6.60;;
9294;SDS011;4686;44.496;11.324;2022-10-31T04:02:51;9.43;;;6.50;;
9294;SDS011;4686;44.496;11.324;2022-10-31T04:05:21;8.73;;;6.17;;
9294;SDS011;4686;44.496;11.324;2022-10-31T04:07:49;6.40;;;5.80;;
9294;SDS011;4686;44.496;11.324;2022-10-31T04:10:19;11.87;;;6.00;;
9294;SDS011;4686;44.496;11.324;2022-10-31T04:12:48;10.53;;;6.50;;
9294;SDS011;4686;44.496;11.324;2022-10-31T04:15:17;12.83;;;6.40;;
9294;SDS011;4686;44.496;11.324;2022-10-31T04:17:45;9.20;;;6.20;;
9294;SDS011;4686;44.496;11.324;2022-10-31T04:20:15;6.73;;;6.10;;
9294;SDS011;4686;44.496;11.324;2022-10-31T04:22:42;10.80;;;5.93;;
9294;SDS011;4686;44.496;11.324;2022-10-31T04:25:10;6.97;;;6.20;;
9294;SDS011;4686;44.496;11.324;2022-10-31T04:27:38;10.57;;;6.50;;
9294;SDS011;4686;44.496;11.324;2022-10-31T04:30:06;6.53;;;5.90;;
9294;SDS011;4686;44.496;11.324;2022-10-31T04:32:34;9.23;;;6.00;;
9294;SDS011;4686;44.496;11.324;2022-10-31T04:35:05;10.03;;;6.83;;
9294;SDS011;4686;44.496;11.324;2022-10-31T04:37:32;8.30;;;5.70;;
9294;SDS011;4686;44.496;11.324;2022-10-31T04:40:00;7.23;;;6.10;;
9294;SDS011;4686;44.496;11.324;2022-10-31T04:42:28;7.60;;;5.80;;
9294;SDS011;4686;44.496;11.324;2022-10-31T04:44:57;8.80;;;6.40;;
9294;SDS011;4686;44.496;11.324;2022-10-31T04:47:24;10.10;;;5.93;;
9294;SDS011;4686;44.496;11.324;2022-10-31T04:49:52;9.30;;;6.10;;
9294;SDS011;4686;44.496;11.324;2022-10-31T04:52:19;6.77;;;5.70;;
9294;SDS011;4686;44.496;11.324;2022-10-31T04:54:46;7.33;;;6.40;;
9294;SDS011;4686;44.496;11.324;2022-10-31T04:57:14;7.97;;;6.60;;
9294;SDS011;4686;44.496;11.324;2022-10-31T04:59:41;11.13;;;5.73;;
9294;SDS011;4686;44.496;11.324;2022-10-31T05:02:10;12.00;;;6.67;;
9294;SDS011;4686;44.496;11.324;2022-10-31T05:04:37;6.40;;;5.80;;
9294;SDS011;4686;44.496;11.324;2022-10-31T05:07:04;14.50;;;6.67;;
9294;SDS011;4686;44.496;11.324;2022-10-31T05:09:31;6.50;;;5.40;;
9294;SDS011;4686;44.496;11.324;2022-10-31T05:11:59;9.83;;;5.67;;
9294;SDS011;4686;44.496;11.324;2022-10-31T05:14:26;5.93;;;5.33;;
9294;SDS011;4686;44.496;11.324;2022-10-31T05:16:53;9.00;;;6.50;;
9294;SDS011;4686;44.496;11.324;2022-10-31T05:19:22;12.60;;;5.57;;
9294;SDS011;4686;44.496;11.324;2022-10-31T05:21:49;9.93;;;6.50;;
9294;SDS011;4686;44.496;11.324;2022-10-31T05:24:17;10.70;;;5.70;;
9294;SDS011;4686;44.496;11.324;2022-10-31T05:26:46;7.57;;;5.90;;
9294;SDS011;4686;44.496;11.324;2022-10-31T05:29:13;8.27;;;5.70;;
9294;SDS011;4686;44.496;11.324;2022-10-31T05:31:41;6.90;;;5.50;;
9294;SDS011;4686;44.496;11.324;2022-10-31T05:34:08;8.00;;;5.50;;
9294;SDS011;4686;44.496;11.324;2022-10-31T05:36:37;6.47;;;5.60;;
9294;SDS011;4686;44.496;11.324;2022-10-31T05:39:07;13.00;;;6.03;;
9294;SDS011;4686;44.496;11.324;2022-10-31T05:41:34;9.80;;;6.50;;
9294;SDS011;4686;44.496;11.324;2022-10-31T05:44:01;16.60;;;6.13;;
9294;SDS011;4686;44.496;11.324;2022-10-31T05:46:29;6.50;;;5.57;;
9294;SDS011;4686;44.496;11.324;2022-10-31T05:48:56;6.33;;;5.33;;
9294;SDS011;4686;44.496;11.324;2022-10-31T05:51:24;7.73;;;6.07;;
9294;SDS011;4686;44.496;11.324;2022-10-31T05:53:52;7.10;;;6.17;;
9294;SDS011;4686;44.496;11.324;2022-10-31T05:56:20;11.20;;;6.00;;
9294;SDS011;4686;44.496;11.324;2022-10-31T05:58:47;9.83;;;5.67;;
9294;SDS011;4686;44.496;11.324;2022-10-31T06:01:14;8.00;;;6.13;;
9294;SDS011;4686;44.496;11.324;2022-10-31T06:03:42;6.40;;;5.70;;
9294;SDS011;4686;44.496;11.324;2022-10-31T06:06:09;9.40;;;6.23;;
9294;SDS011;4686;44.496;11.324;2022-10-31T06:08:36;6.80;;;5.83;;
9294;SDS011;4686;44.496;11.324;2022-10-31T06:11:05;8.83;;;6.20;;
9294;SDS011;4686;44.496;11.324;2022-10-31T06:13:33;6.03;;;5.43;;
9294;SDS011;4686;44.496;11.324;2022-10-31T06:16:00;8.90;;;5.30;;
9294;SDS011;4686;44.496;11.324;2022-10-31T06:18:27;7.30;;;6.00;;
9294;SDS011;4686;44.496;11.324;2022-10-31T06:20:55;8.80;;;5.07;;
9294;SDS011;4686;44.496;11.324;2022-10-31T06:23:22;7.53;;;5.73;;
9294;SDS011;4686;44.496;11.324;2022-10-31T06:25:50;6.13;;;5.33;;
9294;SDS011;4686;44.496;11.324;2022-10-31T06:28:20;10.77;;;6.20;;
9294;SDS011;4686;44.496;11.324;2022-10-31T06:30:47;5.73;;;5.13;;
9294;SDS011;4686;44.496;11.324;2022-10-31T06:33:15;8.00;;;5.20;;
9294;SDS011;4686;44.496;11.324;2022-10-31T06:35:48;7.87;;;5.10;;
9294;SDS011;4686;44.496;11.324;2022-10-31T06:38:15;12.97;;;5.43;;
9294;SDS011;4686;44.496;11.324;2022-10-31T06:40:42;6.20;;;5.10;;
9294;SDS011;4686;44.496;11.324;2022-10-31T06:43:10;10.53;;;5.00;;
9294;SDS011;4686;44.496;11.324;2022-10-31T06:45:40;10.40;;;5.60;;
9294;SDS011;4686;44.496;11.324;2022-10-31T06:48:09;5.70;;;5.17;;
9294;SDS011;4686;44.496;11.324;2022-10-31T06:50:36;6.50;;;5.83;;
9294;SDS011;4686;44.496;11.324;2022-10-31T06:53:04;5.83;;;5.27;;
9294;SDS011;4686;44.496;11.324;2022-10-31T06:55:31;7.30;;;5.37;;
9294;SDS011;4686;44.496;11.324;2022-10-31T06:57:59;6.27;;;5.63;;
9294;SDS011;4686;44.496;11.324;2022-10-31T07:00:27;8.07;;;5.57;;
9294;SDS011;4686;44.496;11.324;2022-10-31T07:03:00;7.80;;;5.53;;
9294;SDS011;4686;44.496;11.324;2022-10-31T07:05:29;6.17;;;5.40;;
9294;SDS011;4686;44.496;11.324;2022-10-31T07:07:56;6.20;;;5.60;;
9294;SDS011;4686;44.496;11.324;2022-10-31T07:10:24;7.33;;;5.00;;
9294;SDS011;4686;44.496;11.324;2022-10-31T07:12:53;5.77;;;5.00;;
9294;SDS011;4686;44.496;11.324;2022-10-31T07:15:21;6.07;;;5.37;;
9294;SDS011;4686;44.496;11.324;2022-10-31T07:17:48;6.77;;;5.10;;
9294;SDS011;4686;44.496;11.324;2022-10-31T07:20:17;6.53;;;4.93;;
9294;SDS011;4686;44.496;11.324;2022-10-31T07:22:45;10.57;;;5.70;;
9294;SDS011;4686;44.496;11.324;2022-10-31T07:25:12;9.43;;;5.80;;
9294;SDS011;4686;44.496;11.324;2022-10-31T07:27:40;7.60;;;5.27;;
9294;SDS011;4686;44.496;11.324;2022-10-31T07:30:09;6.93;;;5.00;;
9294;SDS011;4686;44.496;11.324;2022-10-31T07:32:37;6.47;;;4.63;;
9294;SDS011;4686;44.496;11.324;2022-10-31T07:35:05;5.33;;;4.87;;
9294;SDS011;4686;44.496;11.324;2022-10-31T07:37:34;5.60;;;4.80;;
9294;SDS011;4686;44.496;11.324;2022-10-31T07:40:02;10.73;;;5.80;;
9294;SDS011;4686;44.496;11.324;2022-10-31T07:42:29;5.80;;;5.13;;
9294;SDS011;4686;44.496;11.324;2022-10-31T07:45:02;6.00;;;5.17;;
9294;SDS011;4686;44.496;11.324;2022-10-31T07:47:29;6.87;;;4.73;;
9294;SDS011;4686;44.496;11.324;2022-10-31T07:49:57;5.50;;;4.97;;
9294;SDS011;4686;44.496;11.324;2022-10-31T07:52:24;7.67;;;4.60;;
9294;SDS011;4686;44.496;11.324;2022-10-31T07:54:52;9.38;;;4.70;;
9294;SDS011;4686;44.496;11.324;2022-10-31T07:57:20;13.47;;;5.53;;
9294;SDS011;4686;44.496;11.324;2022-10-31T07:59:47;12.20;;;5.40;;
9294;SDS011;4686;44.496;11.324;2022-10-31T08:02:15;6.33;;;4.73;;
9294;SDS011;4686;44.496;11.324;2022-10-31T08:04:42;8.50;;;4.80;;
9294;SDS011;4686;44.496;11.324;2022-10-31T08:07:21;6.20;;;4.40;;
9294;SDS011;4686;44.496;11.324;2022-10-31T08:09:48;5.20;;;4.70;;
9294;SDS011;4686;44.496;11.324;2022-10-31T08:12:17;12.97;;;4.90;;
9294;SDS011;4686;44.496;11.324;2022-10-31T08:14:44;5.57;;;4.70;;
9294;SDS011;4686;44.496;11.324;2022-10-31T08:17:11;9.00;;;5.00;;
9294;SDS011;4686;44.496;11.324;2022-10-31T08:19:39;6.80;;;4.80;;
9294;SDS011;4686;44.496;11.324;2022-10-31T08:22:06;11.63;;;4.80;;
9294;SDS011;4686;44.496;11.324;2022-10-31T08:24:33;7.17;;;5.20;;
9294;SDS011;4686;44.496;11.324;2022-10-31T08:27:01;5.00;;;4.60;;
9294;SDS011;4686;44.496;11.324;2022-10-31T08:29:29;6.97;;;4.43;;
9294;SDS011;4686;44.496;11.324;2022-10-31T08:31:57;8.50;;;4.73;;
9294;SDS011;4686;44.496;11.324;2022-10-31T08:34:24;4.93;;;4.07;;
9294;SDS011;4686;44.496;11.324;2022-10-31T08:36:53;6.67;;;4.60;;
9294;SDS011;4686;44.496;11.324;2022-10-31T08:39:21;10.63;;;5.43;;
9294;SDS011;4686;44.496;11.324;2022-10-31T08:41:48;9.80;;;4.90;;
9294;SDS011;4686;44.496;11.324;2022-10-31T08:44:16;9.77;;;5.20;;
9294;SDS011;4686;44.496;11.324;2022-10-31T08:46:44;9.63;;;5.30;;
9294;SDS011;4686;44.496;11.324;2022-10-31T08:49:12;10.10;;;5.70;;
9294;SDS011;4686;44.496;11.324;2022-10-31T08:51:39;12.07;;;7.40;;
9294;SDS011;4686;44.496;11.324;2022-10-31T08:54:06;16.67;;;8.10;;
9294;SDS011;4686;44.496;11.324;2022-10-31T08:56:33;7.97;;;5.63;;
9294;SDS011;4686;44.496;11.324;2022-10-31T08:59:01;9.30;;;5.50;;
9294;SDS011;4686;44.496;11.324;2022-10-31T09:01:28;14.80;;;9.47;;
9294;SDS011;4686;44.496;11.324;2022-10-31T09:03:58;15.63;;;9.20;;
9294;SDS011;4686;44.496;11.324;2022-10-31T09:06:25;10.17;;;8.57;;
9294;SDS011;4686;44.496;11.324;2022-10-31T09:08:52;15.77;;;8.63;;
9294;SDS011;4686;44.496;11.324;2022-10-31T09:11:20;18.97;;;10.07;;
9294;SDS011;4686;44.496;11.324;2022-10-31T09:13:47;9.53;;;6.70;;
9294;SDS011;4686;44.496;11.324;2022-10-31T09:16:14;15.77;;;8.80;;
9294;SDS011;4686;44.496;11.324;2022-10-31T09:18:41;12.40;;;8.90;;
9294;SDS011;4686;44.496;11.324;2022-10-31T09:21:10;11.27;;;5.90;;
9294;SDS011;4686;44.496;11.324;2022-10-31T09:23:38;17.13;;;8.83;;
9294;SDS011;4686;44.496;11.324;2022-10-31T09:26:05;13.30;;;8.20;;
9294;SDS011;4686;44.496;11.324;2022-10-31T09:28:32;19.97;;;10.73;;
9294;SDS011;4686;44.496;11.324;2022-10-31T09:31:00;12.47;;;7.43;;
9294;SDS011;4686;44.496;11.324;2022-10-31T09:33:27;11.47;;;6.90;;
9294;SDS011;4686;44.496;11.324;2022-10-31T09:35:57;12.83;;;9.90;;
9294;SDS011;4686;44.496;11.324;2022-10-31T09:38:26;11.70;;;6.97;;
9294;SDS011;4686;44.496;11.324;2022-10-31T09:40:55;22.10;;;7.77;;
9294;SDS011;4686;44.496;11.324;2022-10-31T09:43:24;25.97;;;12.87;;
9294;SDS011;4686;44.496;11.324;2022-10-31T09:45:55;16.00;;;10.37;;
9294;SDS011;4686;44.496;11.324;2022-10-31T09:48:27;9.50;;;6.80;;
9294;SDS011;4686;44.496;11.324;2022-10-31T09:50:59;9.90;;;6.33;;
9294;SDS011;4686;44.496;11.324;2022-10-31T09:53:29;10.00;;;7.60;;
9294;SDS011;4686;44.496;11.324;2022-10-31T09:55:59;13.57;;;7.80;;
9294;SDS011;4686;44.496;11.324;2022-10-31T09:58:27;10.80;;;7.30;;
9294;SDS011;4686;44.496;11.324;2022-10-31T10:00:56;10.80;;;7.30;;
9294;SDS011;4686;44.496;11.324;2022-10-31T10:03:28;10.10;;;6.90;;
9294;SDS011;4686;44.496;11.324;2022-10-31T10:05:59;10.03;;;7.40;;
9294;SDS011;4686;44.496;11.324;2022-10-31T10:08:31;12.03;;;8.07;;
9294;SDS011;4686;44.496;11.324;2022-10-31T10:11:01;14.83;;;7.50;;
9294;SDS011;4686;44.496;11.324;2022-10-31T10:13:36;10.53;;;7.63;;
9294;SDS011;4686;44.496;11.324;2022-10-31T10:16:10;13.03;;;8.03;;
9294;SDS011;4686;44.496;11.324;2022-10-31T10:18:41;15.03;;;7.80;;
9294;SDS011;4686;44.496;11.324;2022-10-31T10:21:14;16.20;;;8.30;;
9294;SDS011;4686;44.496;11.324;2022-10-31T10:23:53;20.23;;;9.47;;
9294;SDS011;4686;44.496;11.324;2022-10-31T10:26:22;17.63;;;8.30;;
9294;SDS011;4686;44.496;11.324;2022-10-31T10:28:54;16.77;;;9.43;;
9294;SDS011;4686;44.496;11.324;2022-10-31T10:31:25;16.77;;;9.60;;
9294;SDS011;4686;44.496;11.324;2022-10-31T10:33:56;17.07;;;9.37;;
9294;SDS011;4686;44.496;11.324;2022-10-31T10:36:26;13.53;;;8.50;;
9294;SDS011;4686;44.496;11.324;2022-10-31T10:38:57;20.07;;;10.47;;
9294;SDS011;4686;44.496;11.324;2022-10-31T10:41:27;16.47;;;9.57;;
9294;SDS011;4686;44.496;11.324;2022-10-31T10:43:56;16.60;;;9.70;;
9294;SDS011;4686;44.496;11.324;2022-10-31T10:46:25;13.37;;;9.10;;
9294;SDS011;4686;44.496;11.324;2022-10-31T10:49:16;19.40;;;9.10;;
9294;SDS011;4686;44.496;11.324;2022-10-31T10:51:44;15.80;;;9.83;;
9294;SDS011;4686;44.496;11.324;2022-10-31T10:57:01;16.10;;;10.30;;
9294;SDS011;4686;44.496;11.324;2022-10-31T10:59:30;19.13;;;10.23;;
9294;SDS011;4686;44.496;11.324;2022-10-31T11:01:57;20.20;;;10.43;;
9294;SDS011;4686;44.496;11.324;2022-10-31T11:04:29;19.90;;;10.47;;
9294;SDS011;4686;44.496;11.324;2022-10-31T11:07:01;13.60;;;9.33;;
9294;SDS011;4686;44.496;11.324;2022-10-31T11:09:28;18.27;;;9.63;;
9294;SDS011;4686;44.496;11.324;2022-10-31T11:11:56;14.87;;;9.37;;
9294;SDS011;4686;44.496;11.324;2022-10-31T11:14:25;16.40;;;8.40;;
9294;SDS011;4686;44.496;11.324;2022-10-31T11:16:54;14.53;;;8.87;;
9294;SDS011;4686;44.496;11.324;2022-10-31T11:19:22;15.27;;;9.70;;
9294;SDS011;4686;44.496;11.324;2022-10-31T11:21:50;14.93;;;9.33;;
9294;SDS011;4686;44.496;11.324;2022-10-31T11:24:18;16.30;;;10.50;;
9294;SDS011;4686;44.496;11.324;2022-10-31T11:26:46;15.73;;;9.27;;
9294;SDS011;4686;44.496;11.324;2022-10-31T11:29:15;12.97;;;9.23;;
9294;SDS011;4686;44.496;11.324;2022-10-31T11:31:44;19.40;;;11.23;;
9294;SDS011;4686;44.496;11.324;2022-10-31T11:34:14;18.37;;;10.30;;
9294;SDS011;4686;44.496;11.324;2022-10-31T11:36:43;11.63;;;8.27;;
9294;SDS011;4686;44.496;11.324;2022-10-31T11:39:16;14.90;;;9.43;;
9294;SDS011;4686;44.496;11.324;2022-10-31T11:41:44;16.50;;;10.00;;
9294;SDS011;4686;44.496;11.324;2022-10-31T11:44:12;26.73;;;9.53;;
9294;SDS011;4686;44.496;11.324;2022-10-31T11:46:41;16.13;;;10.40;;
9294;SDS011;4686;44.496;11.324;2022-10-31T11:49:15;17.73;;;9.13;;
9294;SDS011;4686;44.496;11.324;2022-10-31T11:51:47;18.57;;;11.33;;
9294;SDS011;4686;44.496;11.324;2022-10-31T11:54:18;20.00;;;9.47;;
9294;SDS011;4686;44.496;11.324;2022-10-31T11:56:46;18.93;;;10.93;;
9294;SDS011;4686;44.496;11.324;2022-10-31T11:59:22;19.03;;;10.00;;
9294;SDS011;4686;44.496;11.324;2022-10-31T12:01:51;17.53;;;10.13;;
9294;SDS011;4686;44.496;11.324;2022-10-31T12:04:21;17.63;;;11.63;;
9294;SDS011;4686;44.496;11.324;2022-10-31T12:06:50;18.63;;;12.50;;
9294;SDS011;4686;44.496;11.324;2022-10-31T12:09:20;19.87;;;12.57;;
9294;SDS011;4686;44.496;11.324;2022-10-31T12:11:52;18.43;;;11.10;;
9294;SDS011;4686;44.496;11.324;2022-10-31T12:14:26;24.77;;;12.03;;
9294;SDS011;4686;44.496;11.324;2022-10-31T12:16:56;23.87;;;11.87;;
9294;SDS011;4686;44.496;11.324;2022-10-31T12:19:30;24.83;;;14.43;;
9294;SDS011;4686;44.496;11.324;2022-10-31T12:22:06;20.00;;;12.57;;
9294;SDS011;4686;44.496;11.324;2022-10-31T12:24:59;27.70;;;12.97;;
9294;SDS011;4686;44.496;11.324;2022-10-31T12:27:35;20.50;;;13.13;;
9294;SDS011;4686;44.496;11.324;2022-10-31T12:30:17;24.07;;;13.07;;
9294;SDS011;4686;44.496;11.324;2022-10-31T12:32:59;24.73;;;12.37;;
9294;SDS011;4686;44.496;11.324;2022-10-31T12:43:51;25.20;;;14.20;;
9294;SDS011;4686;44.496;11.324;2022-10-31T12:46:29;17.27;;;12.63;;
9294;SDS011;4686;44.496;11.324;2022-10-31T12:49:06;26.10;;;13.70;;
9294;SDS011;4686;44.496;11.324;2022-10-31T12:51:38;23.47;;;13.53;;
9294;SDS011;4686;44.496;11.324;2022-10-31T12:56:54;27.60;;;13.57;;
9294;SDS011;4686;44.496;11.324;2022-10-31T12:59:31;22.07;;;13.93;;
9294;SDS011;4686;44.496;11.324;2022-10-31T13:02:00;29.20;;;13.93;;
9294;SDS011;4686;44.496;11.324;2022-10-31T13:04:35;21.33;;;14.03;;
9294;SDS011;4686;44.496;11.324;2022-10-31T13:07:03;30.93;;;17.70;;
9294;SDS011;4686;44.496;11.324;2022-10-31T13:09:34;21.57;;;13.50;;
9294;SDS011;4686;44.496;11.324;2022-10-31T13:12:04;37.17;;;21.63;;
9294;SDS011;4686;44.496;11.324;2022-10-31T13:14:44;30.30;;;17.23;;
9294;SDS011;4686;44.496;11.324;2022-10-31T13:17:13;29.17;;;17.87;;
9294;SDS011;4686;44.496;11.324;2022-10-31T13:19:46;19.97;;;12.00;;
9294;SDS011;4686;44.496;11.324;2022-10-31T13:22:17;24.03;;;12.43;;
9294;SDS011;4686;44.496;11.324;2022-10-31T13:24:47;21.97;;;12.60;;
9294;SDS011;4686;44.496;11.324;2022-10-31T13:27:17;18.87;;;12.30;;
9294;SDS011;4686;44.496;11.324;2022-10-31T13:29:50;15.47;;;12.00;;
9294;SDS011;4686;44.496;11.324;2022-10-31T13:32:23;27.30;;;13.93;;
9294;SDS011;4686;44.496;11.324;2022-10-31T13:34:52;21.33;;;14.30;;
9294;SDS011;4686;44.496;11.324;2022-10-31T13:37:23;42.73;;;24.60;;
9294;SDS011;4686;44.496;11.324;2022-10-31T13:39:58;23.20;;;13.30;;
9294;SDS011;4686;44.496;11.324;2022-10-31T13:42:32;24.83;;;15.47;;
9294;SDS011;4686;44.496;11.324;2022-10-31T13:45:10;26.53;;;15.67;;
9294;SDS011;4686;44.496;11.324;2022-10-31T13:47:40;21.30;;;11.53;;
9294;SDS011;4686;44.496;11.324;2022-10-31T13:50:18;22.87;;;14.23;;
9294;SDS011;4686;44.496;11.324;2022-10-31T13:52:46;17.87;;;12.03;;
9294;SDS011;4686;44.496;11.324;2022-10-31T13:58:00;34.60;;;22.17;;
9294;SDS011;4686;44.496;11.324;2022-10-31T14:00:28;55.03;;;26.83;;
9294;SDS011;4686;44.496;11.324;2022-10-31T14:02:59;18.17;;;11.37;;
9294;SDS011;4686;44.496;11.324;2022-10-31T14:05:27;17.60;;;12.57;;
9294;SDS011;4686;44.496;11.324;2022-10-31T14:07:56;19.30;;;10.53;;
9294;SDS011;4686;44.496;11.324;2022-10-31T14:10:25;17.30;;;11.80;;
9294;SDS011;4686;44.496;11.324;2022-10-31T14:12:53;32.33;;;16.70;;
9294;SDS011;4686;44.496;11.324;2022-10-31T14:15:22;46.30;;;32.70;;
9294;SDS011;4686;44.496;11.324;2022-10-31T14:17:52;25.87;;;15.50;;
9294;SDS011;4686;44.496;11.324;2022-10-31T14:20:33;45.60;;;30.53;;
9294;SDS011;4686;44.496;11.324;2022-10-31T14:23:13;17.43;;;11.63;;
9294;SDS011;4686;44.496;11.324;2022-10-31T14:25:42;25.53;;;11.90;;
9294;SDS011;4686;44.496;11.324;2022-10-31T14:28:21;104.10;;;69.00;;
9294;SDS011;4686;44.496;11.324;2022-10-31T14:30:52;35.03;;;21.93;;
9294;SDS011;4686;44.496;11.324;2022-10-31T14:33:23;58.93;;;36.03;;
9294;SDS011;4686;44.496;11.324;2022-10-31T14:35:56;46.03;;;29.13;;
9294;SDS011;4686;44.496;11.324;2022-10-31T14:38:28;25.97;;;17.90;;
9294;SDS011;4686;44.496;11.324;2022-10-31T14:41:08;69.30;;;39.17;;
9294;SDS011;4686;44.496;11.324;2022-10-31T14:43:41;36.20;;;24.07;;
9294;SDS011;4686;44.496;11.324;2022-10-31T14:46:14;61.80;;;40.03;;
9294;SDS011;4686;44.496;11.324;2022-10-31T14:48:59;62.27;;;36.93;;
9294;SDS011;4686;44.496;11.324;2022-10-31T14:51:30;32.90;;;19.27;;
9294;SDS011;4686;44.496;11.324;2022-10-31T14:54:00;34.30;;;21.07;;
9294;SDS011;4686;44.496;11.324;2022-10-31T14:56:29;36.17;;;20.77;;
9294;SDS011;4686;44.496;11.324;2022-10-31T14:58:57;22.57;;;13.10;;
9294;SDS011;4686;44.496;11.324;2022-10-31T15:01:28;30.67;;;16.43;;
9294;SDS011;4686;44.496;11.324;2022-10-31T15:04:00;26.10;;;18.30;;
9294;SDS011;4686;44.496;11.324;2022-10-31T15:06:30;46.37;;;26.77;;
9294;SDS011;4686;44.496;11.324;2022-10-31T15:08:59;41.10;;;25.80;;
9294;SDS011;4686;44.496;11.324;2022-10-31T15:11:28;23.03;;;14.47;;
9294;SDS011;4686;44.496;11.324;2022-10-31T15:14:14;23.17;;;15.00;;
9294;SDS011;4686;44.496;11.324;2022-10-31T15:16:44;39.53;;;19.60;;
9294;SDS011;4686;44.496;11.324;2022-10-31T15:19:15;23.00;;;15.20;;
9294;SDS011;4686;44.496;11.324;2022-10-31T15:21:44;25.20;;;11.50;;
9294;SDS011;4686;44.496;11.324;2022-10-31T15:24:12;26.20;;;15.10;;
9294;SDS011;4686;44.496;11.324;2022-10-31T15:26:43;25.00;;;13.80;;